Weather at Helena Regional Airport

Public forecast

Using degrees Fahrenheit for public forecast. Weather courtesy of forecast.io.

Current aviation weather report (METAR) for Helena Regional Airport

Retrieved 2020/10/31 08:53 UTC (38 minutes ago):

KHLN 310853Z AUTO 31010KT 10SM CLR 06/M04 A3006 RMK AO2 SLP181 T00611039 53028

Aviation forecast (TAF) for Helena Regional Airport

Retrieved 2020/10/31 06:27 UTC (3 hours ago):

TAF KHLN 310524Z 3106/0106 26011G20KT P6SM BKN060 WS020/28040KT FM310900 25008KT P6SM SCT050 WS020/28040KT FM311400 VRB05KT P6SM SKC